createdAt,value
2018-01-31T01:52:20.658Z,6.10
2018-01-31T01:52:43.521Z,6.10
2018-01-31T01:55:11.591Z,6.10
2018-01-31T01:57:39.645Z,6.20
2018-01-31T02:00:07.584Z,6.20
2018-01-31T02:02:36.139Z,6.20
2018-01-31T02:05:04.241Z,6.20
2018-01-31T02:07:32.850Z,6.10
2018-01-31T02:10:00.759Z,6.10
2018-01-31T02:12:28.519Z,6.10
2018-01-31T02:14:56.301Z,6.10
2018-01-31T02:17:24.150Z,6.10
2018-01-31T02:19:52.834Z,6.10
2018-01-31T02:22:20.705Z,6.10
2018-01-31T02:24:49.085Z,6.20
2018-01-31T02:27:16.878Z,6.20
2018-01-31T02:29:45.511Z,6.10
2018-01-31T02:32:13.293Z,6.10
2018-01-31T02:34:41.284Z,6.10
2018-01-31T02:37:09.232Z,6.10
2018-01-31T02:39:48.832Z,6.00
2018-01-31T02:42:16.710Z,6.00
2018-01-31T02:44:44.506Z,5.90
2018-01-31T02:47:12.682Z,5.90
2018-01-31T02:49:40.857Z,5.80
2018-01-31T02:52:08.933Z,5.80
2018-01-31T02:54:36.978Z,5.80
2018-01-31T02:57:04.847Z,5.80
2018-01-31T02:59:32.933Z,5.80
2018-01-31T03:02:00.884Z,5.80
2018-01-31T03:04:28.674Z,5.80
2018-01-31T03:06:56.531Z,5.80
2018-01-31T03:09:24.307Z,5.80
2018-01-31T03:11:52.095Z,5.80
2018-01-31T03:14:20.646Z,5.70
2018-01-31T03:16:48.695Z,5.70
2018-01-31T03:19:16.662Z,5.70
2018-01-31T03:21:44.774Z,5.60
2018-01-31T03:24:13.338Z,5.60
2018-01-31T03:26:41.620Z,5.50
2018-01-31T03:29:09.459Z,5.50
2018-01-31T03:31:37.242Z,5.40
2018-01-31T03:34:05.315Z,5.30
2018-01-31T03:36:33.900Z,5.30
2018-01-31T03:39:01.653Z,5.30
2018-01-31T03:41:29.400Z,5.30
2018-01-31T03:43:57.477Z,5.40
2018-01-31T03:46:25.364Z,5.40
2018-01-31T03:48:53.335Z,5.40
2018-01-31T03:51:21.184Z,5.40
2018-01-31T03:53:48.955Z,5.40
2018-01-31T03:56:16.727Z,5.40
2018-01-31T03:58:44.492Z,5.40
2018-01-31T04:01:12.561Z,5.30
2018-01-31T04:03:40.645Z,5.30
2018-01-31T04:06:09.058Z,5.30
2018-01-31T04:08:36.875Z,5.40
2018-01-31T04:11:04.603Z,5.40
2018-01-31T04:13:33.440Z,5.40
2018-01-31T04:16:02.098Z,5.50
2018-01-31T04:18:29.967Z,5.50
2018-01-31T04:20:57.947Z,5.50
2018-01-31T04:23:25.693Z,5.40
2018-01-31T04:25:53.457Z,5.40
2018-01-31T04:28:21.188Z,5.40
2018-01-31T04:30:49.009Z,5.40
2018-01-31T04:33:16.769Z,5.30
2018-01-31T04:35:44.529Z,5.30
2018-01-31T04:38:12.500Z,5.30
2018-01-31T04:40:40.342Z,5.30
2018-01-31T04:43:08.215Z,5.30
2018-01-31T04:45:36.207Z,5.20
2018-01-31T04:48:04.169Z,5.20
2018-01-31T04:50:31.943Z,5.20
2018-01-31T04:53:00.173Z,5.20
2018-01-31T04:55:27.976Z,5.20
2018-01-31T04:57:55.940Z,5.20
2018-01-31T05:00:23.701Z,5.20
2018-01-31T05:02:51.573Z,5.10
2018-01-31T05:05:19.313Z,5.20
2018-01-31T05:07:47.099Z,5.10
2018-01-31T05:10:15.358Z,5.10
2018-01-31T05:12:43.326Z,5.10
2018-01-31T05:15:11.228Z,5.10
2018-01-31T05:17:39.918Z,5.10
2018-01-31T05:20:07.848Z,5.10
2018-01-31T05:22:35.620Z,5.00
2018-01-31T05:25:03.478Z,5.00
2018-01-31T05:27:31.357Z,5.00
2018-01-31T05:29:59.230Z,5.00
2018-01-31T05:32:27.199Z,5.00
2018-01-31T05:34:55.899Z,5.00
2018-01-31T05:37:23.704Z,4.90
2018-01-31T05:39:51.598Z,4.90
2018-01-31T05:42:19.338Z,5.00
2018-01-31T05:44:48.151Z,4.90
2018-01-31T05:47:15.959Z,4.90
2018-01-31T05:49:44.639Z,4.80
2018-01-31T05:52:13.424Z,4.70
2018-01-31T05:54:41.663Z,4.70
2018-01-31T05:57:09.755Z,4.70
2018-01-31T05:59:37.705Z,4.60
2018-01-31T06:02:05.675Z,4.50
2018-01-31T06:04:33.746Z,4.30
2018-01-31T06:07:02.744Z,4.20
2018-01-31T06:09:31.454Z,4.10
2018-01-31T06:11:59.303Z,3.90
2018-01-31T06:14:27.287Z,3.80
2018-01-31T06:16:55.175Z,3.80
2018-01-31T06:19:23.828Z,3.70
2018-01-31T06:21:52.206Z,3.70
2018-01-31T06:24:20.088Z,3.60
2018-01-31T06:26:47.875Z,3.50
2018-01-31T06:29:17.342Z,3.40
2018-01-31T06:31:45.421Z,3.40
2018-01-31T06:34:13.284Z,3.30
2018-01-31T06:36:41.286Z,3.20
2018-01-31T06:39:09.786Z,3.20
2018-01-31T06:41:37.504Z,3.20
2018-01-31T06:44:06.157Z,3.20
2018-01-31T06:46:33.911Z,3.10
2018-01-31T06:49:01.635Z,3.10
2018-01-31T06:51:30.285Z,3.00
2018-01-31T06:53:58.158Z,3.00
2018-01-31T06:56:26.023Z,2.90
2018-01-31T06:58:53.776Z,3.00
2018-01-31T07:01:21.541Z,3.10
2018-01-31T07:03:49.412Z,3.10
2018-01-31T07:06:18.180Z,3.10
2018-01-31T07:08:46.051Z,3.10
2018-01-31T07:11:13.836Z,3.20
2018-01-31T07:13:41.786Z,3.30
2018-01-31T07:16:09.650Z,3.30
2018-01-31T07:18:37.537Z,3.40
2018-01-31T07:21:05.405Z,3.50
2018-01-31T07:23:33.140Z,3.60
2018-01-31T07:26:01.137Z,3.70
2018-01-31T07:28:28.901Z,3.80
2018-01-31T07:30:56.660Z,3.90
2018-01-31T07:33:24.642Z,4.00
2018-01-31T07:35:52.717Z,4.00
2018-01-31T07:38:20.458Z,4.10
2018-01-31T07:40:48.331Z,4.10
2018-01-31T07:43:17.203Z,4.10
2018-01-31T07:45:45.381Z,4.20
2018-01-31T07:48:14.069Z,4.30
2018-01-31T07:50:41.944Z,4.30
2018-01-31T07:53:09.810Z,4.30
2018-01-31T07:55:37.660Z,4.40
2018-01-31T07:58:07.224Z,4.60
2018-01-31T08:00:35.445Z,4.70
2018-01-31T08:03:04.345Z,4.70
2018-01-31T08:05:33.623Z,4.80
2018-01-31T08:08:02.423Z,4.70
2018-01-31T08:10:31.864Z,4.70
2018-01-31T08:13:01.557Z,4.60
2018-01-31T08:15:29.504Z,4.60
2018-01-31T08:17:57.470Z,4.50
2018-01-31T08:20:28.172Z,4.50
2018-01-31T08:22:58.773Z,4.50
2018-01-31T08:25:28.234Z,4.70
2018-01-31T08:27:56.177Z,4.60
2018-01-31T08:30:24.779Z,4.80
2018-01-31T08:32:53.447Z,5.00
2018-01-31T08:35:21.442Z,5.20
2018-01-31T08:37:50.237Z,6.00
2018-01-31T08:40:18.201Z,6.00
2018-01-31T08:42:46.139Z,6.10
2018-01-31T08:45:14.137Z,6.40
2018-01-31T08:47:42.210Z,6.60
2018-01-31T08:50:10.111Z,6.40
2018-01-31T08:52:38.155Z,6.70
2018-01-31T08:55:06.120Z,6.80
2018-01-31T08:57:34.124Z,6.80
2018-01-31T09:00:02.977Z,6.50
2018-01-31T09:02:31.503Z,6.40
2018-01-31T09:04:59.456Z,6.50
2018-01-31T09:07:27.599Z,6.50
2018-01-31T09:09:55.565Z,6.70
2018-01-31T09:12:23.638Z,6.70
2018-01-31T09:14:51.516Z,6.40
2018-01-31T09:17:19.584Z,6.50
2018-01-31T09:19:48.099Z,6.40
2018-01-31T09:22:16.851Z,6.20
2018-01-31T09:24:44.917Z,6.20
2018-01-31T09:27:13.198Z,6.30
2018-01-31T09:29:41.162Z,6.50
2018-01-31T09:32:08.958Z,6.70
2018-01-31T09:34:37.713Z,7.00
2018-01-31T09:37:05.473Z,7.00
2018-01-31T09:39:33.270Z,7.20
2018-01-31T09:42:01.141Z,7.30
2018-01-31T09:44:29.297Z,7.20
2018-01-31T09:46:57.113Z,7.10
2018-01-31T09:49:25.700Z,7.20
2018-01-31T09:51:53.913Z,7.20
2018-01-31T09:54:21.773Z,7.20
2018-01-31T09:56:49.637Z,7.40
2018-01-31T09:59:17.386Z,7.40
2018-01-31T10:01:45.181Z,7.40
2018-01-31T10:04:12.956Z,7.30
2018-01-31T10:06:40.835Z,7.30
2018-01-31T10:09:09.486Z,7.40
2018-01-31T10:11:37.778Z,7.40
2018-01-31T10:14:05.730Z,7.30
2018-01-31T10:16:33.599Z,7.30
2018-01-31T10:19:01.490Z,7.20
2018-01-31T10:21:31.092Z,7.30
2018-01-31T10:23:58.978Z,7.40
2018-01-31T10:26:27.500Z,7.40
2018-01-31T10:28:56.540Z,7.40
2018-01-31T10:31:24.430Z,7.50
2018-01-31T10:33:53.173Z,7.20
2018-01-31T10:36:21.844Z,7.20
2018-01-31T10:38:49.751Z,7.20
2018-01-31T10:41:18.337Z,7.30
2018-01-31T10:43:46.188Z,7.20
2018-01-31T10:46:13.963Z,7.30
2018-01-31T10:48:41.827Z,7.40
2018-01-31T10:51:09.877Z,7.40
2018-01-31T10:58:34.422Z,7.30
2018-01-31T11:01:02.286Z,7.40
2018-01-31T11:03:30.140Z,7.60
2018-01-31T11:05:58.115Z,7.80
2018-01-31T11:08:25.978Z,8.20
2018-01-31T11:10:53.931Z,8.20
2018-01-31T11:13:21.819Z,8.30
2018-01-31T11:15:49.588Z,8.40
2018-01-31T11:18:17.439Z,8.30
2018-01-31T11:20:45.627Z,8.50
2018-01-31T11:23:13.490Z,8.60
2018-01-31T11:25:43.027Z,8.60
2018-01-31T11:28:11.940Z,8.70
2018-01-31T11:30:39.990Z,8.70
2018-01-31T11:33:10.066Z,8.50
2018-01-31T11:35:38.045Z,8.50
2018-01-31T11:38:05.904Z,8.50
2018-01-31T11:40:34.689Z,8.30
2018-01-31T11:43:02.850Z,8.30
2018-01-31T11:45:31.030Z,8.40
2018-01-31T11:47:59.089Z,8.40
2018-01-31T11:50:26.868Z,8.50
2018-01-31T11:52:54.739Z,8.60
2018-01-31T11:55:22.580Z,8.60
2018-01-31T11:57:50.366Z,8.60
2018-01-31T12:00:18.240Z,8.50
2018-01-31T12:02:46.010Z,8.50
2018-01-31T12:05:14.266Z,8.50
2018-01-31T12:07:42.952Z,8.70
2018-01-31T12:10:12.848Z,8.70
2018-01-31T12:12:47.878Z,8.70
2018-01-31T12:15:24.441Z,8.60
2018-01-31T12:17:52.242Z,8.60
2018-01-31T12:20:32.265Z,8.60
2018-01-31T12:23:12.902Z,8.80
2018-01-31T12:26:06.341Z,9.00
2018-01-31T12:28:46.057Z,9.00
2018-01-31T12:31:26.010Z,9.00
2018-01-31T12:34:05.709Z,9.10
2018-01-31T12:36:46.290Z,9.20
2018-01-31T12:39:14.594Z,9.40
2018-01-31T12:41:42.254Z,9.40
2018-01-31T12:44:09.604Z,9.50
2018-01-31T12:47:02.280Z,9.50
2018-01-31T12:49:43.431Z,9.40
2018-01-31T12:52:33.706Z,9.40
2018-01-31T12:55:13.502Z,9.50
2018-01-31T12:57:53.421Z,9.60
2018-01-31T13:00:33.816Z,9.60
2018-01-31T13:03:17.424Z,9.70
2018-01-31T13:05:57.299Z,9.70
2018-01-31T13:08:37.435Z,9.80
2018-01-31T13:11:17.167Z,9.80
2018-01-31T13:14:08.000Z,10.00
2018-01-31T13:16:47.743Z,10.00
2018-01-31T13:19:17.604Z,10.10
2018-01-31T13:21:57.380Z,10.00
2018-01-31T13:24:37.347Z,10.00
2018-01-31T13:27:17.276Z,9.70
2018-01-31T13:29:57.039Z,9.60
2018-01-31T13:32:36.878Z,9.60
2018-01-31T13:35:16.339Z,9.80
2018-01-31T13:38:02.626Z,9.70
2018-01-31T13:40:42.282Z,9.60
2018-01-31T13:43:22.015Z,9.70
2018-01-31T13:46:01.754Z,10.00
2018-01-31T13:48:41.820Z,10.20
2018-01-31T13:51:23.176Z,10.40
2018-01-31T13:54:02.787Z,10.50
2018-01-31T13:56:42.792Z,10.20
2018-01-31T13:59:22.843Z,10.20
2018-01-31T14:02:02.658Z,10.20
2018-01-31T14:04:42.432Z,10.20
2018-01-31T14:07:22.070Z,10.40
2018-01-31T14:10:14.713Z,10.60
2018-01-31T14:12:54.338Z,10.60
2018-01-31T14:15:34.187Z,10.30
2018-01-31T14:18:13.993Z,10.30
2018-01-31T14:20:54.535Z,10.30
2018-01-31T14:23:34.106Z,10.20
2018-01-31T14:26:14.307Z,10.00
2018-01-31T14:28:54.266Z,9.90
2018-01-31T14:31:33.965Z,9.90
2018-01-31T14:34:13.834Z,9.90
2018-01-31T14:36:41.378Z,9.80
2018-01-31T14:39:08.955Z,9.80
2018-01-31T14:41:37.030Z,9.70
2018-01-31T14:44:04.489Z,9.80
2018-01-31T14:46:32.150Z,9.80
2018-01-31T14:48:59.443Z,9.80
2018-01-31T14:51:27.680Z,9.90
2018-01-31T14:53:55.055Z,9.90
2018-01-31T14:56:22.387Z,9.80
2018-01-31T14:58:49.751Z,9.80
2018-01-31T15:01:17.911Z,9.80
2018-01-31T15:03:45.392Z,9.80
2018-01-31T15:06:12.680Z,9.90
2018-01-31T15:08:40.121Z,9.90
2018-01-31T15:11:08.452Z,9.90
2018-01-31T15:13:36.249Z,9.80
2018-01-31T15:16:03.681Z,9.80
2018-01-31T15:18:31.114Z,9.70
2018-01-31T15:20:58.533Z,9.60
2018-01-31T15:23:26.759Z,9.50
2018-01-31T15:25:54.008Z,9.40
2018-01-31T15:28:21.592Z,9.30
2018-01-31T15:30:48.837Z,9.20
2018-01-31T15:33:16.180Z,9.10
2018-01-31T15:35:43.961Z,9.00
2018-01-31T15:38:11.604Z,9.00
2018-01-31T15:40:38.985Z,8.90
2018-01-31T15:43:06.233Z,8.90
2018-01-31T15:45:33.502Z,8.90
2018-01-31T15:48:00.920Z,8.70
2018-01-31T15:50:28.392Z,8.60
2018-01-31T15:52:55.947Z,8.60
2018-01-31T15:55:23.450Z,8.60
2018-01-31T15:57:51.672Z,8.50
2018-01-31T16:00:18.936Z,8.50
2018-01-31T16:02:46.289Z,8.50
2018-01-31T16:05:13.635Z,8.40
2018-01-31T16:07:40.971Z,8.40
2018-01-31T16:10:08.350Z,8.40
2018-01-31T16:12:35.909Z,8.30
2018-01-31T16:15:03.665Z,8.30
2018-01-31T16:17:32.147Z,8.40
2018-01-31T16:20:11.655Z,8.30
2018-01-31T16:22:39.580Z,8.30
2018-01-31T16:25:07.439Z,8.30
2018-01-31T16:27:47.386Z,8.30
2018-01-31T16:30:22.851Z,8.30
2018-01-31T16:33:17.538Z,8.30
2018-01-31T16:35:45.387Z,8.20
2018-01-31T16:38:13.341Z,8.30
2018-01-31T16:40:41.310Z,8.20
2018-01-31T16:43:09.300Z,8.10
2018-01-31T16:45:37.247Z,8.10
2018-01-31T16:48:05.119Z,8.10
2018-01-31T16:50:33.205Z,8.00
2018-01-31T16:53:01.092Z,8.00
2018-01-31T16:55:30.574Z,8.20
2018-01-31T16:57:58.557Z,8.20
2018-01-31T17:00:27.438Z,8.20
2018-01-31T17:02:55.387Z,8.20
2018-01-31T17:05:23.355Z,8.20
2018-01-31T17:07:51.188Z,8.20
2018-01-31T17:10:19.109Z,8.20
2018-01-31T17:12:47.113Z,8.20
2018-01-31T17:15:15.641Z,8.10
2018-01-31T17:17:43.426Z,8.10
2018-01-31T17:20:11.600Z,8.20
2018-01-31T17:22:39.647Z,8.10
2018-01-31T17:25:07.650Z,8.10
2018-01-31T17:27:36.220Z,8.20
2018-01-31T17:30:04.168Z,8.20
2018-01-31T17:32:32.066Z,8.10
2018-01-31T17:35:00.106Z,8.10
2018-01-31T17:37:28.214Z,8.20
2018-01-31T17:39:56.061Z,8.20
2018-01-31T17:42:23.932Z,8.20
2018-01-31T17:44:51.810Z,8.20
2018-01-31T17:47:19.644Z,8.20
2018-01-31T17:49:47.542Z,8.30
2018-01-31T17:52:15.586Z,8.30
2018-01-31T17:54:43.450Z,8.30
2018-01-31T17:57:11.624Z,8.40
2018-01-31T17:59:39.595Z,8.40
2018-01-31T18:02:07.386Z,8.40
2018-01-31T18:04:35.880Z,8.30
2018-01-31T18:07:05.162Z,8.30
2018-01-31T18:09:33.057Z,8.30
2018-01-31T18:12:01.573Z,8.20
2018-01-31T18:14:29.450Z,8.20
2018-01-31T18:20:28.781Z,8.10
2018-01-31T18:22:56.562Z,8.10
2018-01-31T18:25:26.319Z,8.00
2018-01-31T18:27:54.085Z,7.90
2018-01-31T18:30:22.030Z,7.80
2018-01-31T18:32:50.694Z,7.90
2018-01-31T18:35:18.599Z,7.80
2018-01-31T18:37:46.418Z,7.90
2018-01-31T18:40:14.406Z,7.90
2018-01-31T18:42:43.053Z,7.90
2018-01-31T18:45:11.058Z,7.90
2018-01-31T18:47:38.934Z,7.70
2018-01-31T18:50:07.581Z,7.80
2018-01-31T18:52:35.411Z,7.80
2018-01-31T18:55:03.227Z,7.80
2018-01-31T18:57:31.106Z,7.90
2018-01-31T18:59:59.079Z,7.90
2018-01-31T19:02:26.945Z,7.80
2018-01-31T19:04:56.290Z,7.80
2018-01-31T19:07:24.211Z,7.70
2018-01-31T19:09:52.795Z,7.70
2018-01-31T19:12:20.735Z,7.70
2018-01-31T19:14:48.911Z,7.60
2018-01-31T19:17:16.887Z,7.40
2018-01-31T19:19:44.655Z,7.40
2018-01-31T19:22:12.603Z,7.30
2018-01-31T19:24:40.579Z,7.20
2018-01-31T19:27:08.446Z,7.20
2018-01-31T19:29:36.508Z,7.20
2018-01-31T19:32:04.322Z,7.00
2018-01-31T19:34:32.958Z,6.90
2018-01-31T19:37:01.575Z,6.80
2018-01-31T19:39:29.615Z,6.90
2018-01-31T19:41:57.376Z,6.80
2018-01-31T19:44:25.240Z,6.80
2018-01-31T19:46:53.034Z,6.80
2018-01-31T19:49:20.906Z,6.80
2018-01-31T19:51:48.773Z,6.90
2018-01-31T19:54:17.314Z,6.70
2018-01-31T19:56:45.326Z,6.70
2018-01-31T19:59:13.362Z,6.60
2018-01-31T20:01:41.233Z,6.60
2018-01-31T20:04:09.160Z,6.70
2018-01-31T20:06:37.802Z,6.50
2018-01-31T20:09:05.733Z,6.50
2018-01-31T20:11:33.575Z,6.50
2018-01-31T20:14:02.406Z,6.50
2018-01-31T20:16:30.301Z,6.40
2018-01-31T20:18:58.182Z,6.40
2018-01-31T20:21:27.848Z,6.30
2018-01-31T20:23:55.761Z,6.30
2018-01-31T20:26:24.297Z,6.50
2018-01-31T20:28:52.113Z,6.50
2018-01-31T20:31:31.176Z,6.50
2018-01-31T20:33:59.041Z,6.50
2018-01-31T20:36:26.855Z,6.40
2018-01-31T20:38:54.941Z,6.30
2018-01-31T20:41:23.604Z,6.30
2018-01-31T20:43:51.388Z,6.30
2018-01-31T20:46:20.047Z,6.40
2018-01-31T20:48:48.416Z,6.40
2018-01-31T20:51:16.721Z,6.40
2018-01-31T20:53:45.597Z,6.70
2018-01-31T20:56:13.558Z,7.00
2018-01-31T20:58:41.354Z,6.80
2018-01-31T21:01:10.025Z,6.60
2018-01-31T21:03:37.886Z,6.60
2018-01-31T21:06:07.383Z,6.50
2018-01-31T21:08:35.265Z,6.50
2018-01-31T21:11:03.203Z,6.50
2018-01-31T21:13:31.299Z,6.60
2018-01-31T21:15:59.243Z,6.70
2018-01-31T21:18:27.044Z,6.90
2018-01-31T21:20:55.013Z,6.90
2018-01-31T21:23:22.944Z,6.80
2018-01-31T21:25:51.035Z,6.80
2018-01-31T21:28:20.182Z,6.70
2018-01-31T21:30:48.108Z,6.70
2018-01-31T21:33:15.960Z,7.00
2018-01-31T21:35:44.016Z,7.50
2018-01-31T21:38:11.886Z,7.40
2018-01-31T21:40:39.764Z,7.30
2018-01-31T21:43:09.371Z,7.10
2018-01-31T21:45:38.167Z,7.00
2018-01-31T21:48:06.050Z,7.00
2018-01-31T21:50:35.918Z,6.80
2018-01-31T21:53:04.031Z,6.80
2018-01-31T21:55:31.983Z,6.70
2018-01-31T21:58:00.855Z,6.60
2018-01-31T22:00:28.848Z,6.60
2018-01-31T22:02:57.233Z,6.70
2018-01-31T22:05:25.822Z,6.70
2018-01-31T22:07:54.497Z,6.70
2018-01-31T22:10:23.131Z,6.70
2018-01-31T22:12:50.898Z,6.90
2018-01-31T22:15:18.703Z,7.20
2018-01-31T22:17:46.573Z,7.20
2018-01-31T22:20:15.342Z,7.00
2018-01-31T22:22:43.224Z,6.80
2018-01-31T22:25:11.199Z,6.70
2018-01-31T22:27:39.036Z,6.80
2018-01-31T22:30:07.335Z,6.90
2018-01-31T22:32:35.199Z,6.90
2018-01-31T22:35:03.559Z,7.10
2018-01-31T22:37:31.361Z,7.30
2018-01-31T22:39:59.890Z,7.40
2018-01-31T22:42:27.729Z,7.40
2018-01-31T22:44:56.461Z,7.50
2018-01-31T22:47:24.402Z,7.40
2018-01-31T22:49:52.993Z,7.40
2018-01-31T22:52:21.102Z,7.30
2018-01-31T22:54:48.976Z,7.30
2018-01-31T22:57:16.824Z,7.20
2018-01-31T22:59:45.098Z,7.10
2018-01-31T23:02:13.133Z,7.00
2018-01-31T23:04:41.263Z,7.10
2018-01-31T23:07:09.018Z,7.20
2018-01-31T23:09:37.092Z,7.20
2018-01-31T23:12:10.979Z,7.40
2018-01-31T23:14:44.409Z,7.40
2018-01-31T23:17:18.097Z,7.40
2018-01-31T23:19:45.931Z,7.50
2018-01-31T23:22:13.695Z,7.50
2018-01-31T23:24:41.797Z,7.50
2018-01-31T23:27:09.652Z,7.60
2018-01-31T23:29:37.749Z,7.60
2018-01-31T23:32:05.493Z,7.60
2018-01-31T23:34:33.639Z,7.60
2018-01-31T23:37:01.442Z,7.70
2018-01-31T23:39:29.401Z,7.70
2018-01-31T23:41:57.170Z,7.80
2018-01-31T23:44:25.037Z,7.70
2018-01-31T23:46:52.812Z,7.70
2018-01-31T23:49:20.754Z,7.70
2018-01-31T23:51:48.560Z,7.60
2018-01-31T23:54:16.403Z,7.60
2018-01-31T23:56:44.167Z,7.60
2018-01-31T23:59:12.360Z,7.60
